Time;durP1;ratioP1;P1;durP2;ratioP2;P2;SDS_P1;SDS_P2;PMS_P1;PMS_P2;Temp;Humidity;BMP_temperature;BMP_pressure;BME280_temperature;BME280_humidity;BME280_pressure;Samples;Min_cycle;Max_cycle;Signal;HPM_P1;HPM_P2
2024/03/11 00:00:06;;;;;;;7.07;1.35;;;27.60;35.60;;;;;;5112697;28;20072;-49
2024/03/11 00:02:32;;;;;;;7.10;1.35;;;27.80;36.10;;;;;;5115404;28;20064;-48
2024/03/11 00:04:58;;;;;;;6.55;1.33;;;28.00;35.30;;;;;;5099091;28;20441;-55
2024/03/11 00:07:30;;;;;;;8.43;1.75;;;28.10;34.90;;;;;;5112994;28;20088;-62
2024/03/11 00:09:56;;;;;;;5.15;1.63;;;28.10;35.10;;;;;;5111858;28;20080;-50
2024/03/11 00:12:23;;;;;;;8.65;1.50;;;27.90;34.90;;;;;;5103440;28;20172;-54
2024/03/11 00:14:51;;;;;;;5.80;1.60;;;27.80;34.60;;;;;;5102852;28;20121;-51
2024/03/11 00:17:21;;;;;;;9.43;1.73;;;27.50;35.30;;;;;;5111818;28;20083;-51
2024/03/11 00:19:48;;;;;;;10.60;1.30;;;27.40;35.60;;;;;;5107697;28;20075;-52
2024/03/11 00:22:15;;;;;;;6.13;1.98;;;27.50;35.30;;;;;;5104942;28;20108;-54
2024/03/11 00:24:41;;;;;;;9.05;1.52;;;27.50;35.40;;;;;;5102422;28;20122;-54
2024/03/11 00:27:08;;;;;;;4.45;1.60;;;27.50;35.70;;;;;;5102457;27;20096;-53
2024/03/11 00:29:37;;;;;;;5.75;1.40;;;27.50;36.20;;;;;;5112711;28;20395;-54
2024/03/11 00:32:07;;;;;;;8.77;1.55;;;27.40;35.80;;;;;;5097723;27;20072;-53
2024/03/11 00:34:34;;;;;;;11.45;1.65;;;27.30;35.60;;;;;;5101541;28;20064;-57
2024/03/11 00:37:00;;;;;;;8.00;1.95;;;27.10;35.50;;;;;;5106285;28;20116;-54
2024/03/11 00:39:28;;;;;;;10.82;1.80;;;26.90;36.00;;;;;;5109375;28;20415;-60
2024/03/11 00:41:54;;;;;;;6.65;1.20;;;26.50;36.10;;;;;;5104561;28;20068;-57
2024/03/11 00:44:21;;;;;;;11.15;1.70;;;26.30;37.00;;;;;;5105698;28;20422;-53
2024/03/11 00:46:49;;;;;;;4.95;1.40;;;26.20;37.60;;;;;;5104403;28;20310;-53
2024/03/11 00:49:17;;;;;;;2.97;1.25;;;26.00;38.00;;;;;;5096984;28;20076;-53
2024/03/11 00:51:44;;;;;;;6.40;1.40;;;25.80;38.30;;;;;;5106202;28;20075;-53
2024/03/11 00:54:11;;;;;;;7.35;1.80;;;25.70;38.50;;;;;;5101925;28;20174;-52
2024/03/11 00:56:39;;;;;;;7.20;1.95;;;25.70;38.60;;;;;;5102939;28;20151;-53
2024/03/11 00:59:06;;;;;;;3.47;1.10;;;25.60;38.80;;;;;;5099958;28;20518;-53
2024/03/11 01:01:33;;;;;;;5.25;1.23;;;25.40;39.40;;;;;;5102705;28;20064;-54
2024/03/11 01:03:59;;;;;;;4.28;1.20;;;25.30;39.60;;;;;;5107337;28;20123;-53
2024/03/11 01:06:27;;;;;;;7.85;1.30;;;25.20;39.90;;;;;;5106159;28;20452;-55
2024/03/11 01:08:54;;;;;;;10.82;1.23;;;25.00;40.00;;;;;;5109172;28;20452;-52
2024/03/11 01:11:24;;;;;;;6.88;1.20;;;24.90;40.30;;;;;;5110922;28;20072;-54
2024/03/11 01:13:51;;;;;;;5.53;1.80;;;24.90;40.40;;;;;;5098858;28;20399;-54
2024/03/11 01:16:18;;;;;;;10.93;6.45;;;24.80;41.10;;;;;;5109623;28;20087;-55
2024/03/11 01:18:45;;;;;;;13.82;1.88;;;24.70;41.00;;;;;;5111281;28;20099;-56
2024/03/11 01:21:13;;;;;;;7.60;1.58;;;24.70;41.10;;;;;;5105182;28;20080;-53
2024/03/11 01:23:41;;;;;;;14.05;1.73;;;24.60;41.30;;;;;;5098611;28;20136;-50
2024/03/11 01:26:07;;;;;;;2.90;1.60;;;24.40;41.80;;;;;;5102815;28;20077;-54
2024/03/11 01:28:34;;;;;;;10.35;2.05;;;24.40;41.90;;;;;;5098894;28;20097;-57
2024/03/11 01:31:04;;;;;;;9.30;2.08;;;24.30;41.80;;;;;;5104627;27;20072;-53
2024/03/11 01:33:31;;;;;;;16.88;1.75;;;24.20;42.10;;;;;;5109513;28;20129;-51
2024/03/11 01:35:59;;;;;;;10.43;2.03;;;24.10;42.10;;;;;;5104317;28;20072;-55
2024/03/11 01:38:28;;;;;;;10.35;2.08;;;24.00;42.40;;;;;;5109204;28;20114;-53
2024/03/11 01:40:56;;;;;;;13.52;2.13;;;23.80;42.40;;;;;;5101681;28;20428;-52
2024/03/11 01:43:24;;;;;;;7.28;2.40;;;23.80;42.70;;;;;;5110236;28;20069;-52
2024/03/11 01:45:51;;;;;;;8.93;2.35;;;23.70;42.70;;;;;;5109093;28;20183;-54
2024/03/11 01:48:18;;;;;;;10.70;2.80;;;23.50;43.10;;;;;;5110236;28;20131;-51
2024/03/11 01:50:44;;;;;;;10.70;2.88;;;23.40;43.20;;;;;;5105712;28;20132;-53
2024/03/11 01:53:11;;;;;;;12.20;2.97;;;23.20;43.50;;;;;;5110837;27;20076;-54
2024/03/11 01:55:38;;;;;;;14.07;3.70;;;23.00;44.40;;;;;;5107355;28;20530;-53
2024/03/11 01:58:09;;;;;;;29.02;8.65;;;23.00;44.30;;;;;;5110081;28;20071;-53
2024/03/11 02:00:37;;;;;;;20.20;7.40;;;22.90;44.60;;;;;;5106674;27;20068;-55
2024/03/11 02:03:06;;;;;;;16.83;7.00;;;22.80;44.80;;;;;;5108565;28;20080;-51
2024/03/11 02:05:40;;;;;;;21.85;6.57;;;22.60;44.90;;;;;;5110074;28;20072;-53
2024/03/11 02:08:07;;;;;;;17.17;4.68;;;22.50;45.90;;;;;;5100494;28;20137;-52
2024/03/11 02:10:34;;;;;;;13.68;5.13;;;22.40;45.10;;;;;;5107371;28;20179;-54
2024/03/11 02:13:01;;;;;;;25.17;5.47;;;22.30;45.20;;;;;;5108408;28;20091;-53
2024/03/11 02:15:28;;;;;;;16.80;5.05;;;22.20;45.20;;;;;;5109147;28;20449;-51
2024/03/11 02:17:54;;;;;;;24.20;6.82;;;22.10;45.50;;;;;;5109474;28;20075;-53
2024/03/11 02:20:21;;;;;;;12.98;5.20;;;22.10;46.20;;;;;;5109741;28;20079;-50
2024/03/11 02:22:52;;;;;;;16.70;4.32;;;22.00;46.00;;;;;;5108040;28;20100;-52
2024/03/11 02:25:21;;;;;;;18.65;5.43;;;22.00;46.00;;;;;;5100759;27;20068;-51
2024/03/11 02:27:51;;;;;;;10.65;4.35;;;21.90;46.10;;;;;;5099312;28;20162;-55
2024/03/11 02:30:18;;;;;;;20.58;4.88;;;21.90;46.20;;;;;;5100283;28;20087;-55
2024/03/11 02:32:45;;;;;;;15.63;4.60;;;21.90;46.60;;;;;;5103994;28;20068;-50
2024/03/11 02:35:11;;;;;;;17.48;6.53;;;21.80;47.70;;;;;;5109175;28;20072;-50
2024/03/11 02:37:38;;;;;;;21.33;6.53;;;21.80;48.10;;;;;;5097260;28;20075;-49
2024/03/11 02:40:09;;;;;;;22.60;6.50;;;21.60;48.40;;;;;;5108934;28;20155;-53
2024/03/11 02:42:42;;;;;;;17.65;6.72;;;21.50;47.80;;;;;;5101089;28;20517;-51
2024/03/11 02:45:12;;;;;;;21.65;7.40;;;21.50;48.10;;;;;;5101059;28;20158;-49
2024/03/11 02:47:38;;;;;;;22.80;8.57;;;21.40;49.00;;;;;;5107443;28;20092;-53
2024/03/11 02:50:06;;;;;;;19.75;8.35;;;21.30;48.20;;;;;;5108761;28;20155;-52
2024/03/11 02:52:33;;;;;;;21.27;8.52;;;21.30;48.50;;;;;;5109210;28;20099;-53
2024/03/11 02:55:01;;;;;;;28.90;8.35;;;21.30;49.40;;;;;;5107958;28;20114;-51
2024/03/11 02:57:28;;;;;;;31.70;9.57;;;21.10;49.10;;;;;;5101136;28;20072;-54
2024/03/11 02:59:54;;;;;;;29.77;9.48;;;21.20;49.20;;;;;;5105054;28;20544;-56
2024/03/11 03:02:23;;;;;;;17.90;8.25;;;21.20;49.20;;;;;;5105027;28;20072;-53
2024/03/11 03:04:49;;;;;;;24.50;8.38;;;21.10;49.50;;;;;;5099014;28;20077;-55
2024/03/11 03:07:17;;;;;;;24.60;8.60;;;21.20;50.50;;;;;;5106546;28;20106;-52
2024/03/11 03:09:44;;;;;;;24.85;8.15;;;21.10;50.30;;;;;;5110993;28;20162;-51
2024/03/11 03:12:10;;;;;;;31.88;8.43;;;21.10;50.70;;;;;;5107531;27;20548;-49
2024/03/11 03:14:37;;;;;;;22.70;7.85;;;21.00;50.90;;;;;;5103576;28;20080;-50
2024/03/11 03:17:05;;;;;;;26.02;9.25;;;20.90;51.00;;;;;;5116939;27;20155;-53
2024/03/11 03:19:31;;;;;;;23.58;8.68;;;20.90;51.10;;;;;;5113874;27;20138;-56
2024/03/11 03:21:58;;;;;;;23.55;8.95;;;20.80;52.40;;;;;;5115754;27;20064;-56
2024/03/11 03:24:24;;;;;;;30.65;9.32;;;20.70;52.00;;;;;;5111006;27;20076;-51
2024/03/11 03:26:51;;;;;;;23.23;9.23;;;20.60;52.70;;;;;;5106102;27;20064;-49
2024/03/11 03:29:18;;;;;;;48.03;10.48;;;20.60;52.20;;;;;;5115366;27;20475;-52
2024/03/11 03:31:48;;;;;;;24.13;10.48;;;20.60;52.40;;;;;;5114153;27;20116;-56
2024/03/11 03:34:14;;;;;;;40.08;15.10;;;20.50;51.90;;;;;;5114825;27;20090;-53
2024/03/11 03:36:41;;;;;;;42.92;18.85;;;20.50;52.00;;;;;;5120763;27;20091;-55
2024/03/11 03:39:10;;;;;;;50.65;19.20;;;20.80;52.70;;;;;;5111943;27;20065;-56
2024/03/11 03:41:37;;;;;;;51.35;15.15;;;21.40;52.20;;;;;;5105091;27;20068;-55
2024/03/11 03:44:05;;;;;;;44.28;13.40;;;21.60;52.30;;;;;;5110166;27;20113;-57
2024/03/11 03:46:32;;;;;;;45.88;12.25;;;21.80;51.40;;;;;;5114363;27;20505;-56
2024/03/11 03:48:58;;;;;;;36.50;12.25;;;21.70;51.30;;;;;;5115270;27;20464;-62
2024/03/11 03:51:25;;;;;;;38.22;11.15;;;21.70;50.80;;;;;;5105937;27;20088;-63
2024/03/11 03:53:52;;;;;;;44.08;11.05;;;21.60;51.50;;;;;;5112083;27;20075;-63
2024/03/11 03:56:19;;;;;;;32.53;10.73;;;21.60;51.80;;;;;;5121070;27;20113;-62
2024/03/11 03:58:46;;;;;;;30.92;10.32;;;21.50;51.30;;;;;;5120974;27;20064;-61
2024/03/11 04:01:12;;;;;;;32.33;10.27;;;21.50;51.20;;;;;;5107211;27;20148;-63
2024/03/11 04:03:39;;;;;;;38.70;10.65;;;21.50;51.60;;;;;;5117077;27;20514;-63
2024/03/11 04:06:05;;;;;;;36.75;10.00;;;21.50;51.40;;;;;;5107177;27;20064;-61
2024/03/11 04:08:32;;;;;;;50.15;10.57;;;21.60;51.50;;;;;;5107469;27;20101;-62
2024/03/11 04:10:59;;;;;;;34.90;9.73;;;21.50;51.60;;;;;;5105348;27;20076;-61
2024/03/11 04:13:28;;;;;;;33.95;9.63;;;21.70;52.20;;;;;;5107704;27;20159;-61
2024/03/11 04:15:56;;;;;;;40.80;9.65;;;21.70;51.40;;;;;;5108477;27;20075;-59
2024/03/11 04:18:26;;;;;;;37.80;9.65;;;21.50;52.00;;;;;;5109221;27;20415;-62
2024/03/11 04:20:55;;;;;;;29.48;8.55;;;21.30;53.30;;;;;;5108444;27;20076;-61
2024/03/11 04:23:28;;;;;;;31.58;8.55;;;21.50;52.10;;;;;;5113402;27;20587;-62
2024/03/11 04:25:55;;;;;;;22.55;8.55;;;21.40;51.80;;;;;;5103263;27;20079;-62
2024/03/11 04:28:23;;;;;;;40.63;9.57;;;21.20;52.70;;;;;;5105585;28;20587;-61
2024/03/11 04:30:50;;;;;;;30.80;9.38;;;21.10;52.10;;;;;;5094228;28;20144;-61
2024/03/11 04:33:17;;;;;;;37.50;10.52;;;21.00;52.80;;;;;;5105703;28;20168;-62
2024/03/11 04:35:44;;;;;;;45.72;11.95;;;20.80;51.20;;;;;;5102356;28;20574;-61
2024/03/11 04:38:12;;;;;;;59.75;13.45;;;20.90;51.00;;;;;;5113755;28;20080;-61
2024/03/11 04:40:40;;;;;;;53.22;15.52;;;20.90;50.40;;;;;;5116062;28;20069;-60
2024/03/11 04:43:07;;;;;;;73.93;16.50;;;21.00;49.90;;;;;;5109961;28;20060;-60
2024/03/11 04:45:38;;;;;;;71.85;15.73;;;21.10;49.60;;;;;;5109385;28;20068;-62
2024/03/11 04:48:06;;;;;;;69.93;15.73;;;21.10;49.50;;;;;;5099759;28;20096;-62
2024/03/11 04:50:34;;;;;;;74.53;17.08;;;21.10;49.30;;;;;;5108659;28;20075;-62
2024/03/11 04:53:05;;;;;;;62.10;16.92;;;21.20;49.50;;;;;;5100255;28;20061;-61
2024/03/11 04:55:33;;;;;;;69.65;19.33;;;21.10;50.20;;;;;;5105185;28;20075;-60
2024/03/11 04:58:00;;;;;;;60.75;18.98;;;21.10;51.00;;;;;;5103837;28;20073;-63
2024/03/11 05:00:28;;;;;;;73.65;17.17;;;21.20;50.80;;;;;;5107886;28;20072;-61
2024/03/11 05:02:56;;;;;;;61.28;16.00;;;21.20;51.20;;;;;;5104658;28;20528;-62
2024/03/11 05:05:23;;;;;;;50.55;13.48;;;21.20;51.80;;;;;;5101328;28;20071;-64
2024/03/11 05:07:49;;;;;;;56.42;12.32;;;21.10;52.90;;;;;;5109830;28;20490;-63
2024/03/11 05:10:16;;;;;;;54.42;11.20;;;21.10;53.70;;;;;;5101598;28;20490;-65
2024/03/11 05:12:44;;;;;;;42.88;10.73;;;21.20;54.40;;;;;;5109531;28;20064;-61
2024/03/11 05:15:10;;;;;;;45.33;11.02;;;21.20;55.40;;;;;;5105868;28;20524;-62
2024/03/11 05:17:38;;;;;;;34.60;11.13;;;21.20;56.20;;;;;;5109289;28;20094;-62
2024/03/11 05:20:11;;;;;;;44.92;11.07;;;21.20;56.40;;;;;;5106669;28;20502;-61
2024/03/11 05:22:41;;;;;;;36.65;9.88;;;21.10;56.70;;;;;;5110017;28;20115;-60
2024/03/11 05:25:11;;;;;;;22.48;7.35;;;21.10;57.40;;;;;;5104678;28;20541;-61
2024/03/11 05:27:39;;;;;;;25.60;6.50;;;21.10;57.90;;;;;;5106050;28;20169;-60
2024/03/11 05:30:06;;;;;;;19.02;6.00;;;21.00;58.50;;;;;;5103440;28;20075;-61
2024/03/11 05:32:32;;;;;;;20.00;5.85;;;21.00;58.90;;;;;;5098937;28;20094;-60
2024/03/11 05:34:59;;;;;;;12.93;4.88;;;21.00;59.20;;;;;;5106307;28;20071;-61
2024/03/11 05:37:28;;;;;;;14.23;4.97;;;20.90;59.70;;;;;;5098544;28;20080;-61
2024/03/11 05:39:56;;;;;;;15.80;4.60;;;20.90;60.00;;;;;;5106856;28;20067;-60
2024/03/11 05:42:25;;;;;;;11.40;3.78;;;20.90;61.30;;;;;;5104093;28;20083;-61
2024/03/11 05:44:51;;;;;;;20.65;4.45;;;20.90;61.50;;;;;;5095815;28;20522;-60
2024/03/11 05:47:18;;;;;;;13.25;3.95;;;20.80;60.90;;;;;;5108919;28;20136;-61
2024/03/11 05:49:44;;;;;;;15.02;3.42;;;20.90;60.90;;;;;;5108455;28;20121;-62
2024/03/11 05:52:11;;;;;;;12.32;3.20;;;20.90;60.70;;;;;;5100150;28;20072;-61
2024/03/11 05:54:38;;;;;;;13.43;3.38;;;20.90;60.80;;;;;;5105819;28;20437;-61
2024/03/11 05:57:05;;;;;;;10.80;3.60;;;20.90;60.60;;;;;;5097856;28;20125;-61
2024/03/11 05:59:32;;;;;;;14.25;3.00;;;20.80;60.70;;;;;;5104544;28;20071;-61
2024/03/11 06:01:59;;;;;;;13.32;3.28;;;20.80;60.50;;;;;;5108510;28;20083;-61
2024/03/11 06:04:25;;;;;;;8.00;2.92;;;20.80;60.50;;;;;;5103142;28;20541;-62
2024/03/11 06:06:53;;;;;;;8.75;3.40;;;20.80;60.60;;;;;;5097981;28;20107;-61
2024/03/11 06:09:19;;;;;;;6.90;3.00;;;20.80;60.60;;;;;;5107666;28;20080;-61
2024/03/11 06:11:48;;;;;;;28.33;17.55;;;20.80;60.60;;;;;;5108368;28;20125;-61
2024/03/11 06:14:15;;;;;;;14.05;3.03;;;20.70;60.70;;;;;;5108553;28;20068;-62
2024/03/11 06:16:45;;;;;;;10.07;3.55;;;20.70;60.60;;;;;;5107378;28;20080;-60
2024/03/11 06:19:14;;;;;;;11.30;3.00;;;20.70;60.40;;;;;;5104675;27;20068;-62
2024/03/11 06:21:42;;;;;;;6.63;2.95;;;20.70;60.30;;;;;;5104588;28;20095;-60
2024/03/11 06:24:12;;;;;;;9.88;3.13;;;20.70;60.20;;;;;;5105869;28;20209;-59
2024/03/11 06:26:39;;;;;;;12.45;3.28;;;20.70;60.10;;;;;;5099663;28;20510;-61
2024/03/11 06:29:06;;;;;;;11.07;3.45;;;20.70;60.30;;;;;;5107837;28;20126;-61
2024/03/11 06:31:39;;;;;;;10.13;2.60;;;20.60;60.40;;;;;;5098895;28;20104;-62
2024/03/11 06:34:11;;;;;;;11.98;3.35;;;20.60;60.50;;;;;;5101507;28;20175;-62
2024/03/11 06:36:37;;;;;;;9.77;2.95;;;20.50;60.80;;;;;;5108426;28;20068;-61
2024/03/11 06:39:03;;;;;;;7.97;2.47;;;20.50;61.10;;;;;;5106627;28;20421;-61
2024/03/11 06:41:30;;;;;;;6.50;2.15;;;20.50;61.50;;;;;;5096459;28;20506;-62
2024/03/11 06:44:01;;;;;;;12.65;2.88;;;20.40;61.80;;;;;;5107845;28;20068;-61
2024/03/11 06:46:28;;;;;;;6.80;2.45;;;20.40;62.70;;;;;;5098490;28;20068;-59
2024/03/11 06:48:55;;;;;;;8.50;3.10;;;20.30;62.00;;;;;;5096202;28;20544;-61
2024/03/11 06:51:22;;;;;;;10.45;3.95;;;20.30;62.20;;;;;;5108434;28;20072;-61
2024/03/11 06:53:49;;;;;;;8.77;4.18;;;20.30;62.20;;;;;;5105014;28;20440;-61
2024/03/11 06:56:15;;;;;;;14.63;6.55;;;20.40;62.40;;;;;;5104503;28;20188;-61
2024/03/11 06:58:42;;;;;;;14.50;6.38;;;20.30;61.90;;;;;;5104739;28;20439;-61
2024/03/11 07:01:11;;;;;;;14.98;4.93;;;20.20;62.20;;;;;;5098308;28;20480;-60
2024/03/11 07:03:39;;;;;;;11.55;3.88;;;20.10;62.40;;;;;;5098694;28;20080;-61
2024/03/11 07:06:05;;;;;;;17.88;2.70;;;20.00;62.60;;;;;;5105959;28;20076;-60
2024/03/11 07:08:36;;;;;;;11.73;2.40;;;20.00;63.00;;;;;;5097432;28;20099;-61
2024/03/11 07:11:03;;;;;;;8.23;1.88;;;19.90;63.00;;;;;;5106211;28;20403;-61
2024/03/11 07:13:31;;;;;;;8.30;2.28;;;19.80;63.30;;;;;;5095672;28;20063;-61
2024/03/11 07:15:58;;;;;;;6.95;2.13;;;19.80;63.30;;;;;;5106704;28;20064;-61
2024/03/11 07:18:26;;;;;;;8.35;2.30;;;19.80;63.60;;;;;;5107503;28;20099;-61
2024/03/11 07:20:55;;;;;;;4.20;2.05;;;19.70;63.50;;;;;;5094652;28;20510;-61
2024/03/11 07:23:22;;;;;;;8.98;2.28;;;19.60;63.80;;;;;;5108122;28;20127;-61
2024/03/11 07:25:48;;;;;;;5.15;1.90;;;19.60;64.10;;;;;;5107465;28;20071;-61
2024/03/11 07:28:15;;;;;;;4.93;2.10;;;19.60;64.00;;;;;;5097324;28;20107;-61
2024/03/11 07:30:41;;;;;;;6.85;2.13;;;19.50;63.50;;;;;;5098698;28;20140;-61
2024/03/11 07:33:08;;;;;;;5.38;1.80;;;19.50;62.50;;;;;;5104443;28;20073;-62
2024/03/11 07:35:41;;;;;;;8.20;1.83;;;19.50;62.00;;;;;;5107797;28;20068;-60
2024/03/11 07:38:09;;;;;;;5.78;2.00;;;19.50;60.80;;;;;;5119777;28;20545;-61
2024/03/11 07:40:38;;;;;;;6.13;1.98;;;19.60;60.30;;;;;;5109205;28;20076;-60
2024/03/11 07:43:10;;;;;;;7.35;1.75;;;19.70;59.70;;;;;;5107644;28;20079;-60
2024/03/11 07:45:40;;;;;;;8.60;2.00;;;19.70;59.50;;;;;;5100496;28;20072;-62
2024/03/11 07:48:15;;;;;;;11.43;2.10;;;19.70;59.40;;;;;;5103997;28;20092;-61
2024/03/11 07:50:42;;;;;;;6.00;1.80;;;19.70;59.30;;;;;;5102893;28;20064;-60
2024/03/11 07:53:12;;;;;;;15.57;2.60;;;19.70;59.20;;;;;;5099844;28;20072;-61
2024/03/11 07:55:40;;;;;;;7.90;2.10;;;19.80;59.20;;;;;;5104722;28;20150;-60
2024/03/11 07:58:07;;;;;;;9.95;3.30;;;19.70;59.30;;;;;;5106713;28;20137;-61
2024/03/11 08:00:36;;;;;;;5.63;2.30;;;19.70;59.20;;;;;;5100668;28;20072;-60
2024/03/11 08:03:06;;;;;;;35.78;17.88;;;19.70;59.30;;;;;;5105007;28;20068;-60
2024/03/11 08:05:36;;;;;;;6.65;2.17;;;19.70;58.80;;;;;;5101665;28;20163;-60
2024/03/11 08:08:04;;;;;;;6.30;2.13;;;19.70;59.00;;;;;;5109066;28;20139;-60
2024/03/11 08:10:31;;;;;;;10.18;2.28;;;19.70;58.90;;;;;;5103541;28;20083;-61
2024/03/11 08:12:57;;;;;;;7.50;2.08;;;19.80;58.90;;;;;;5096913;28;20075;-62
2024/03/11 08:15:24;;;;;;;11.50;2.28;;;19.70;58.90;;;;;;5105330;28;20064;-61
2024/03/11 08:17:51;;;;;;;5.80;2.00;;;19.70;58.70;;;;;;5110263;28;20099;-60
2024/03/11 08:20:20;;;;;;;6.85;1.65;;;19.70;58.90;;;;;;5108691;28;20121;-60
2024/03/11 08:22:55;;;;;;;7.18;2.22;;;19.60;59.10;;;;;;5108368;28;20107;-61
2024/03/11 08:25:25;;;;;;;8.40;2.15;;;19.60;59.30;;;;;;5103626;28;20424;-60
2024/03/11 08:27:54;;;;;;;5.40;1.73;;;19.60;59.50;;;;;;5100287;28;20104;-61
2024/03/11 08:30:23;;;;;;;7.00;2.03;;;19.50;59.80;;;;;;5102657;28;20111;-62
2024/03/11 08:32:50;;;;;;;4.75;1.70;;;19.40;60.00;;;;;;5099784;28;20076;-61
2024/03/11 08:35:21;;;;;;;8.63;1.75;;;19.30;60.40;;;;;;5096821;28;20076;-61
2024/03/11 08:37:49;;;;;;;6.40;2.10;;;19.30;60.40;;;;;;5105308;28;20113;-61
2024/03/11 08:40:17;;;;;;;10.57;1.92;;;19.20;60.80;;;;;;5104899;28;20073;-61
2024/03/11 08:42:48;;;;;;;9.77;1.90;;;19.10;60.60;;;;;;5110474;28;20091;-61
2024/03/11 08:45:22;;;;;;;6.90;1.60;;;19.10;60.50;;;;;;5107900;28;20119;-61
2024/03/11 08:47:49;;;;;;;6.57;1.45;;;18.90;60.50;;;;;;5096954;28;20232;-61
2024/03/11 08:50:16;;;;;;;8.18;2.00;;;19.00;60.40;;;;;;5103059;28;20518;-60
2024/03/11 08:52:45;;;;;;;6.50;2.33;;;18.90;60.00;;;;;;5103437;28;20109;-61
2024/03/11 08:55:13;;;;;;;14.40;1.70;;;18.90;60.00;;;;;;5110148;28;20510;-61
2024/03/11 08:57:43;;;;;;;7.03;1.77;;;18.90;60.10;;;;;;5109476;28;20076;-61
2024/03/11 09:00:17;;;;;;;5.70;1.70;;;18.90;59.60;;;;;;5096281;28;20060;-62
2024/03/11 09:02:44;;;;;;;7.40;1.77;;;18.80;59.40;;;;;;5108476;27;20413;-61
2024/03/11 09:05:17;;;;;;;4.47;1.70;;;18.80;59.30;;;;;;5108211;28;20140;-60
2024/03/11 09:07:46;;;;;;;8.80;1.85;;;18.80;59.30;;;;;;5110021;28;20136;-61
2024/03/11 09:10:16;;;;;;;6.20;2.20;;;18.80;58.80;;;;;;5108569;28;20084;-61
2024/03/11 09:12:44;;;;;;;4.25;1.58;;;18.80;58.80;;;;;;5104550;28;20076;-60
2024/03/11 09:15:17;;;;;;;8.57;2.10;;;18.80;58.70;;;;;;5108762;28;20107;-61
2024/03/11 09:17:46;;;;;;;7.55;2.30;;;18.80;58.20;;;;;;5104429;28;20072;-61
2024/03/11 09:20:16;;;;;;;8.43;1.88;;;18.80;57.90;;;;;;5103052;28;20490;-62
2024/03/11 09:22:50;;;;;;;6.97;2.03;;;18.90;58.40;;;;;;5099232;28;20718;-60
2024/03/11 09:25:24;;;;;;;9.55;2.53;;;18.90;58.20;;;;;;5095946;28;20076;-62
2024/03/11 09:28:00;;;;;;;10.18;2.58;;;18.80;58.30;;;;;;5099044;28;20607;-61
2024/03/11 09:30:31;;;;;;;7.00;1.83;;;18.80;57.90;;;;;;5097978;28;20068;-61
2024/03/11 09:32:58;;;;;;;5.75;2.00;;;18.70;58.10;;;;;;5108732;28;20084;-62
2024/03/11 09:35:25;;;;;;;7.22;2.35;;;18.50;58.20;;;;;;5109741;28;20068;-63
2024/03/11 09:37:52;;;;;;;3.53;1.52;;;18.50;58.00;;;;;;5104816;28;20112;-60
2024/03/11 09:40:23;;;;;;;7.18;2.28;;;18.50;57.50;;;;;;5106389;28;20521;-60
2024/03/11 09:42:54;;;;;;;3.80;1.60;;;18.50;57.20;;;;;;5107360;28;20080;-60
2024/03/11 09:45:22;;;;;;;9.10;1.67;;;18.50;56.70;;;;;;5108538;28;20068;-60
2024/03/11 09:47:58;;;;;;;5.13;1.60;;;18.50;56.30;;;;;;5105609;28;20688;-60
2024/03/11 09:50:32;;;;;;;4.07;1.48;;;18.50;56.60;;;;;;5101436;28;20068;-60
2024/03/11 09:53:06;;;;;;;5.47;1.58;;;18.50;56.40;;;;;;5096157;28;20064;-61
2024/03/11 09:55:33;;;;;;;7.95;2.90;;;18.40;56.70;;;;;;5097483;28;20082;-60
2024/03/11 09:58:10;;;;;;;12.13;3.50;;;18.40;56.50;;;;;;5100258;28;20107;-61
2024/03/11 10:00:48;;;;;;;5.82;1.63;;;18.40;56.50;;;;;;5109107;28;20129;-60
2024/03/11 10:03:22;;;;;;;4.43;1.52;;;18.30;56.30;;;;;;5107992;28;20068;-61
2024/03/11 10:05:57;;;;;;;4.07;1.70;;;18.30;56.50;;;;;;5107004;28;20086;-60
2024/03/11 10:08:25;;;;;;;12.45;3.85;;;18.30;56.30;;;;;;5103277;28;20099;-60
2024/03/11 10:11:11;;;;;;;7.07;3.40;;;18.20;56.90;;;;;;5105691;28;20072;-59
2024/03/11 10:13:38;;;;;;;4.63;1.53;;;18.20;56.30;;;;;;5108046;28;20064;-58
2024/03/11 10:16:18;;;;;;;8.57;1.85;;;18.20;55.80;;;;;;5092045;28;20064;-61
2024/03/11 10:19:11;;;;;;;7.20;1.45;;;18.20;56.30;;;;;;5102898;28;20100;-62
2024/03/11 10:21:39;;;;;;;5.68;1.60;;;18.20;56.00;;;;;;5106228;28;20103;-60
2024/03/11 10:24:08;;;;;;;6.25;1.30;;;18.10;55.40;;;;;;5107797;28;20522;-61
2024/03/11 10:26:42;;;;;;;6.30;2.03;;;18.10;55.00;;;;;;5104812;28;20099;-61
2024/03/11 10:29:11;;;;;;;3.80;1.40;;;18.00;55.30;;;;;;5109361;28;20707;-61
2024/03/11 10:31:40;;;;;;;10.98;1.50;;;18.00;55.30;;;;;;5103565;28;20087;-61
2024/03/11 10:34:16;;;;;;;3.17;1.48;;;18.00;55.40;;;;;;5101930;28;20149;-61
2024/03/11 10:36:48;;;;;;;4.47;1.50;;;18.00;55.40;;;;;;5106880;28;20117;-61
2024/03/11 10:39:30;;;;;;;5.00;1.65;;;18.00;56.10;;;;;;5111452;28;20076;-61
2024/03/11 10:41:57;;;;;;;6.82;1.77;;;17.80;56.50;;;;;;5101580;28;20071;-61
2024/03/11 10:44:29;;;;;;;6.20;1.70;;;17.70;57.50;;;;;;5108085;28;20083;-60
2024/03/11 10:47:02;;;;;;;5.03;1.90;;;17.70;58.20;;;;;;5107219;28;21011;-61
2024/03/11 10:49:29;;;;;;;6.47;1.70;;;17.60;58.50;;;;;;5108699;28;20091;-58
2024/03/11 10:52:07;;;;;;;3.78;1.40;;;17.60;59.20;;;;;;5092764;28;20077;-61
2024/03/11 10:54:38;;;;;;;7.45;1.80;;;17.40;59.30;;;;;;5106761;28;20435;-62
2024/03/11 10:57:14;;;;;;;7.07;1.45;;;17.40;59.70;;;;;;5108349;28;20164;-62
2024/03/11 10:59:48;;;;;;;4.32;1.50;;;17.30;59.70;;;;;;5095621;28;20068;-61
2024/03/11 11:02:23;;;;;;;3.42;1.33;;;17.30;59.80;;;;;;5102229;28;20079;-61
2024/03/11 11:04:53;;;;;;;6.72;1.42;;;17.20;59.70;;;;;;5107690;28;20126;-61
2024/03/11 11:07:29;;;;;;;4.82;1.40;;;17.10;59.80;;;;;;5101673;28;20077;-61
2024/03/11 11:10:01;;;;;;;5.32;1.98;;;17.10;60.10;;;;;;5105574;28;21218;-60
2024/03/11 11:12:30;;;;;;;4.18;1.38;;;17.00;59.90;;;;;;5107984;28;20068;-60
2024/03/11 11:15:05;;;;;;;3.28;1.25;;;17.00;59.70;;;;;;5103477;28;20071;-61
2024/03/11 11:17:37;;;;;;;8.48;1.55;;;17.00;59.70;;;;;;5108143;28;20079;-61
2024/03/11 11:20:30;;;;;;;2.45;1.10;;;17.00;59.30;;;;;;5104272;28;20477;-61
2024/03/11 11:23:02;;;;;;;8.35;1.55;;;17.00;59.50;;;;;;5090914;28;20183;-61
2024/03/11 11:25:39;;;;;;;8.38;1.73;;;16.90;59.00;;;;;;5096500;28;20076;-61
2024/03/11 11:28:13;;;;;;;6.22;1.70;;;16.90;59.20;;;;;;5094159;28;20100;-61
2024/03/11 11:30:43;;;;;;;3.33;1.30;;;16.80;58.90;;;;;;5102723;28;20475;-59
2024/03/11 11:33:11;;;;;;;2.67;1.30;;;16.80;58.70;;;;;;5102037;28;20114;-61
2024/03/11 11:35:43;;;;;;;3.83;1.33;;;16.80;58.80;;;;;;5090950;28;20069;-61
2024/03/11 11:38:25;;;;;;;9.57;1.67;;;16.70;58.60;;;;;;5102871;28;20064;-60
2024/03/11 11:40:56;;;;;;;7.55;1.48;;;16.70;58.60;;;;;;5111807;28;20076;-60
2024/03/11 11:43:45;;;;;;;6.20;1.85;;;16.70;58.70;;;;;;5097363;28;20120;-61
2024/03/11 11:46:31;;;;;;;5.85;1.60;;;16.70;59.00;;;;;;5111707;28;20068;-61
2024/03/11 11:49:16;;;;;;;3.75;1.42;;;16.70;59.00;;;;;;5110443;28;20117;-61
2024/03/11 11:51:51;;;;;;;6.65;1.95;;;16.60;59.00;;;;;;5108795;28;20072;-60
2024/03/11 11:54:26;;;;;;;7.53;1.42;;;16.50;59.10;;;;;;5104418;28;20254;-61
2024/03/11 11:57:05;;;;;;;5.15;1.52;;;16.40;59.00;;;;;;5097596;28;20070;-60
2024/03/11 11:59:38;;;;;;;7.05;1.40;;;16.20;59.40;;;;;;5094825;28;20079;-61
2024/03/11 12:02:08;;;;;;;5.18;1.58;;;16.20;59.60;;;;;;5105932;28;20117;-60
2024/03/11 12:04:35;;;;;;;10.27;1.70;;;16.20;59.60;;;;;;5109496;28;20067;-60
2024/03/11 12:07:02;;;;;;;5.05;1.38;;;16.10;59.30;;;;;;5111050;27;20099;-60
2024/03/11 12:09:33;;;;;;;6.35;1.38;;;16.10;59.30;;;;;;5111342;28;20112;-60
2024/03/11 12:12:00;;;;;;;4.07;1.52;;;16.00;59.00;;;;;;5099524;28;20072;-61
2024/03/11 12:14:26;;;;;;;5.18;1.52;;;16.10;59.10;;;;;;5104119;28;20519;-61
2024/03/11 12:17:07;;;;;;;3.63;1.48;;;16.00;58.80;;;;;;5108241;28;20456;-61
2024/03/11 12:19:36;;;;;;;4.68;1.55;;;16.00;58.50;;;;;;5105791;28;20096;-59
2024/03/11 12:22:04;;;;;;;5.55;1.60;;;16.00;58.50;;;;;;5109334;27;20102;-61
2024/03/11 12:24:31;;;;;;;4.85;1.40;;;15.90;58.30;;;;;;5093260;28;20149;-61
2024/03/11 12:26:58;;;;;;;6.70;1.65;;;16.00;58.30;;;;;;5107046;28;20416;-60
2024/03/11 12:29:25;;;;;;;5.88;1.60;;;16.00;58.10;;;;;;5103182;28;20099;-62
2024/03/11 12:31:56;;;;;;;13.02;1.77;;;16.00;57.80;;;;;;5109141;28;20163;-61
2024/03/11 12:34:24;;;;;;;7.43;1.42;;;16.10;57.00;;;;;;5100267;28;20069;-60
2024/03/11 12:36:52;;;;;;;8.70;1.50;;;16.10;56.70;;;;;;5081945;28;20117;-60
2024/03/11 12:39:33;;;;;;;5.68;1.77;;;16.10;56.40;;;;;;5110043;28;20108;-60
2024/03/11 12:42:00;;;;;;;9.27;1.48;;;16.10;56.50;;;;;;5108359;28;20130;-60
2024/03/11 12:44:31;;;;;;;5.68;1.38;;;16.10;56.00;;;;;;5111068;28;20520;-61
2024/03/11 12:47:01;;;;;;;2.00;0.98;;;16.10;56.20;;;;;;5110459;28;20117;-61
2024/03/11 12:49:30;;;;;;;5.88;1.20;;;16.20;55.60;;;;;;5109700;28;20096;-61